Date,TemperatureHighF,TemperatureAvgF,TemperatureLowF,DewpointHighF,DewpointAvgF,DewpointLowF,HumidityHigh,HumidityAvg,HumidityLow,PressureMaxIn,PressureMinIn,WindSpeedMaxMPH,WindSpeedAvgMPH,GustSpeedMaxMPH,PrecipitationSumIn
2013-4-1,62.3,49.5,33.8,45.0,38.6,33.0,95,68,46,30.01,29.93,12,4,14,0.00
2013-4-2,59.4,46.1,31.9,46.0,39.5,31.0,99,80,57,30.12,30.01,10,2,25,0.00
2013-4-3,59.9,47.3,36.1,44.0,39.0,35.0,98,76,44,30.14,30.04,11,2,22,0.00
2013-4-4,55.1,47.4,37.0,48.0,41.8,36.0,96,81,66,30.04,29.76,18,4,30,0.20
2013-4-5,53.6,45.9,40.9,45.0,42.1,40.0,98,87,65,29.94,29.86,17,4,19,0.14
2013-4-6,49.3,44.0,40.6,42.0,39.1,35.0,97,84,59,29.94,29.87,17,4,22,0.38
2013-4-7,49.4,41.2,34.3,42.0,35.0,30.0,97,80,50,29.85,29.64,24,6,31,0.38
2013-4-8,42.7,36.1,30.7,37.0,32.2,26.0,96,86,73,30.24,29.80,15,4,19,0.09
2013-4-9,49.1,37.4,26.2,35.0,28.7,24.0,92,72,52,30.38,30.26,9,2,12,0.00
2013-4-10,51.0,43.5,37.9,47.0,37.2,33.0,92,78,64,30.29,29.92,24,6,28,0.13
2013-4-11,44.7,38.1,28.5,35.0,31.5,27.0,94,78,60,30.16,30.10,13,5,16,0.00
2013-4-12,53.1,40.1,26.6,38.0,31.7,25.0,97,75,42,30.15,29.68,10,2,13,0.46
2013-4-13,38.8,35.5,31.9,37.0,29.6,24.0,96,79,58,29.92,29.64,28,12,35,0.08
2013-4-14,41.9,32.9,26.0,32.0,28.8,25.0,96,85,61,29.99,29.90,9,3,13,0.04
2013-4-15,42.7,35.0,25.5,28.0,23.5,18.0,97,66,44,30.08,29.90,13,5,19,0.01
2013-4-16,41.6,34.3,27.3,19.0,15.7,13.0,59,47,34,30.35,30.09,15,6,18,0.00
2013-4-17,46.0,34.8,25.0,23.0,17.9,12.0,71,52,31,30.45,30.35,13,4,21,0.00
2013-4-18,47.5,36.8,20.6,33.0,26.4,18.0,93,67,48,30.43,30.29,7,2,12,0.00
2013-4-19,45.4,41.2,36.1,43.0,39.1,33.0,97,92,76,30.28,30.02,12,4,16,0.60
2013-4-20,49.6,44.6,40.5,41.0,37.5,35.0,91,77,59,30.16,30.05,13,6,19,0.04
2013-4-21,49.3,41.5,32.9,38.0,35.0,30.0,94,78,60,30.21,30.04,21,6,26,0.06
2013-4-22,46.3,36.3,24.6,29.0,24.7,20.0,90,65,38,30.46,30.22,12,4,15,0.00
2013-4-23,50.4,36.2,21.4,30.0,24.7,20.0,94,68,34,30.43,30.28,9,2,15,0.00
2013-4-24,56.0,41.1,25.0,35.0,29.7,24.0,96,68,39,30.38,30.05,9,3,16,0.00
2013-4-25,45.2,34.7,30.4,36.0,31.1,29.0,96,87,70,30.07,29.99,6,1,7,0.00
2013-4-26,67.0,57.0,37.0,45.0,40.9,36.0,96,58,39,30.22,30.14,9,3,19,0.00
2013-4-27,62.8,50.6,33.5,44.0,37.1,32.0,97,64,36,30.17,30.06,19,6,38,0.00
2013-4-28,55.8,49.0,43.3,43.0,38.1,30.0,90,68,48,30.09,29.91,14,6,19,0.09
2013-4-29,47.4,42.8,32.2,41.0,30.7,17.0,94,65,35,29.98,29.77,29,11,38,0.38
2013-4-30,40.9,33.0,26.3,31.0,25.4,18.0,97,75,53,30.44,29.98,20,5,24,0.00